sensor_id;sensor_type;location;lat;lon;timestamp;temperature;humidity
5176;DHT22;2607;50.934;6.934;2023-02-08T00:00:42;2.10;93.20
5176;DHT22;2607;50.934;6.934;2023-02-08T00:03:08;2.20;93.30
5176;DHT22;2607;50.934;6.934;2023-02-08T00:05:34;2.10;93.30
5176;DHT22;2607;50.934;6.934;2023-02-08T00:07:59;2.10;93.30
5176;DHT22;2607;50.934;6.934;2023-02-08T00:10:25;2.10;93.40
5176;DHT22;2607;50.934;6.934;2023-02-08T00:12:50;2.10;93.40
5176;DHT22;2607;50.934;6.934;2023-02-08T00:15:20;2.10;93.60
5176;DHT22;2607;50.934;6.934;2023-02-08T00:17:45;2.10;93.60
5176;DHT22;2607;50.934;6.934;2023-02-08T00:20:11;2.10;93.70
5176;DHT22;2607;50.934;6.934;2023-02-08T00:22:37;2.10;93.70
5176;DHT22;2607;50.934;6.934;2023-02-08T00:25:04;2.00;93.80
5176;DHT22;2607;50.934;6.934;2023-02-08T00:27:30;2.00;93.80
5176;DHT22;2607;50.934;6.934;2023-02-08T00:29:55;2.00;93.90
5176;DHT22;2607;50.934;6.934;2023-02-08T00:32:21;2.00;94.00
5176;DHT22;2607;50.934;6.934;2023-02-08T00:34:47;2.00;94.10
5176;DHT22;2607;50.934;6.934;2023-02-08T00:37:12;2.00;94.10
5176;DHT22;2607;50.934;6.934;2023-02-08T00:39:38;2.00;94.20
5176;DHT22;2607;50.934;6.934;2023-02-08T00:42:03;2.00;94.30
5176;DHT22;2607;50.934;6.934;2023-02-08T00:44:29;2.00;94.30
5176;DHT22;2607;50.934;6.934;2023-02-08T00:46:54;2.00;94.30
5176;DHT22;2607;50.934;6.934;2023-02-08T00:49:20;2.00;94.40
5176;DHT22;2607;50.934;6.934;2023-02-08T00:51:45;2.00;94.50
5176;DHT22;2607;50.934;6.934;2023-02-08T00:54:15;2.00;94.50
5176;DHT22;2607;50.934;6.934;2023-02-08T00:56:41;2.00;94.60
5176;DHT22;2607;50.934;6.934;2023-02-08T00:59:06;2.00;94.70
5176;DHT22;2607;50.934;6.934;2023-02-08T01:01:32;1.90;94.80
5176;DHT22;2607;50.934;6.934;2023-02-08T01:03:58;2.00;95.00
5176;DHT22;2607;50.934;6.934;2023-02-08T01:06:23;2.00;95.10
5176;DHT22;2607;50.934;6.934;2023-02-08T01:08:49;2.00;95.30
5176;DHT22;2607;50.934;6.934;2023-02-08T01:11:17;2.00;95.40
5176;DHT22;2607;50.934;6.934;2023-02-08T01:13:43;2.00;95.60
5176;DHT22;2607;50.934;6.934;2023-02-08T01:16:23;1.90;95.70
5176;DHT22;2607;50.934;6.934;2023-02-08T01:18:51;1.90;95.90
5176;DHT22;2607;50.934;6.934;2023-02-08T01:21:21;1.90;96.00
5176;DHT22;2607;50.934;6.934;2023-02-08T01:23:47;1.90;96.20
5176;DHT22;2607;50.934;6.934;2023-02-08T01:26:15;1.90;96.30
5176;DHT22;2607;50.934;6.934;2023-02-08T01:28:41;1.90;96.30
5176;DHT22;2607;50.934;6.934;2023-02-08T01:31:09;1.90;96.40
5176;DHT22;2607;50.934;6.934;2023-02-08T01:33:35;1.90;96.30
5176;DHT22;2607;50.934;6.934;2023-02-08T01:36:01;1.90;96.30
5176;DHT22;2607;50.934;6.934;2023-02-08T01:38:27;1.90;96.40
5176;DHT22;2607;50.934;6.934;2023-02-08T01:40:53;1.90;96.40
5176;DHT22;2607;50.934;6.934;2023-02-08T01:43:23;1.90;96.60
5176;DHT22;2607;50.934;6.934;2023-02-08T01:45:48;1.80;96.70
5176;DHT22;2607;50.934;6.934;2023-02-08T01:48:38;1.80;96.70
5176;DHT22;2607;50.934;6.934;2023-02-08T01:51:12;1.80;96.70
5176;DHT22;2607;50.934;6.934;2023-02-08T01:53:40;1.90;96.70
5176;DHT22;2607;50.934;6.934;2023-02-08T01:56:10;1.80;96.70
5176;DHT22;2607;50.934;6.934;2023-02-08T01:58:40;1.80;96.70
5176;DHT22;2607;50.934;6.934;2023-02-08T02:01:08;1.80;96.70
5176;DHT22;2607;50.934;6.934;2023-02-08T02:03:34;1.80;96.70
5176;DHT22;2607;50.934;6.934;2023-02-08T02:06:11;1.80;96.90
5176;DHT22;2607;50.934;6.934;2023-02-08T02:08:40;1.80;96.90
5176;DHT22;2607;50.934;6.934;2023-02-08T02:11:07;1.80;96.90
5176;DHT22;2607;50.934;6.934;2023-02-08T02:13:33;1.80;97.10
5176;DHT22;2607;50.934;6.934;2023-02-08T02:15:58;1.80;97.10
5176;DHT22;2607;50.934;6.934;2023-02-08T02:18:27;1.80;97.00
5176;DHT22;2607;50.934;6.934;2023-02-08T02:29:47;1.70;97.30
5176;DHT22;2607;50.934;6.934;2023-02-08T02:35:17;1.70;97.30
5176;DHT22;2607;50.934;6.934;2023-02-08T02:38:08;1.60;97.10
5176;DHT22;2607;50.934;6.934;2023-02-08T02:48:43;1.60;97.50
5176;DHT22;2607;50.934;6.934;2023-02-08T02:51:17;1.60;97.70
5176;DHT22;2607;50.934;6.934;2023-02-08T02:53:58;1.60;97.70
5176;DHT22;2607;50.934;6.934;2023-02-08T02:56:35;1.60;97.80
5176;DHT22;2607;50.934;6.934;2023-02-08T02:59:05;1.60;97.60
5176;DHT22;2607;50.934;6.934;2023-02-08T03:01:33;1.60;97.60
5176;DHT22;2607;50.934;6.934;2023-02-08T03:03:58;1.60;97.70
5176;DHT22;2607;50.934;6.934;2023-02-08T03:11:57;1.50;97.80
5176;DHT22;2607;50.934;6.934;2023-02-08T03:17:43;1.50;97.80
5176;DHT22;2607;50.934;6.934;2023-02-08T03:20:17;1.50;97.80
5176;DHT22;2607;50.934;6.934;2023-02-08T03:23:18;1.40;97.80
5176;DHT22;2607;50.934;6.934;2023-02-08T03:25:49;1.40;97.80
5176;DHT22;2607;50.934;6.934;2023-02-08T03:28:27;1.40;97.80
5176;DHT22;2607;50.934;6.934;2023-02-08T03:31:04;1.40;97.80
5176;DHT22;2607;50.934;6.934;2023-02-08T03:33:48;1.40;97.90
5176;DHT22;2607;50.934;6.934;2023-02-08T03:39:24;1.40;98.10
5176;DHT22;2607;50.934;6.934;2023-02-08T03:41:54;1.40;98.20
5176;DHT22;2607;50.934;6.934;2023-02-08T03:44:34;1.40;98.30
5176;DHT22;2607;50.934;6.934;2023-02-08T03:47:06;1.40;98.50
5176;DHT22;2607;50.934;6.934;2023-02-08T03:49:34;1.40;98.50
5176;DHT22;2607;50.934;6.934;2023-02-08T03:52:03;1.30;98.40
5176;DHT22;2607;50.934;6.934;2023-02-08T03:54:32;1.30;98.50
5176;DHT22;2607;50.934;6.934;2023-02-08T03:57:07;1.30;98.60
5176;DHT22;2607;50.934;6.934;2023-02-08T03:59:38;1.30;98.70
5176;DHT22;2607;50.934;6.934;2023-02-08T04:02:08;1.30;98.70
5176;DHT22;2607;50.934;6.934;2023-02-08T04:04:41;1.20;98.70
5176;DHT22;2607;50.934;6.934;2023-02-08T04:07:08;1.20;98.80
5176;DHT22;2607;50.934;6.934;2023-02-08T04:09:33;1.20;98.90
5176;DHT22;2607;50.934;6.934;2023-02-08T04:11:59;1.20;99.00
5176;DHT22;2607;50.934;6.934;2023-02-08T04:14:24;1.10;99.00
5176;DHT22;2607;50.934;6.934;2023-02-08T04:16:50;1.10;99.10
5176;DHT22;2607;50.934;6.934;2023-02-08T04:19:16;1.10;99.20
5176;DHT22;2607;50.934;6.934;2023-02-08T04:21:42;1.00;99.20
5176;DHT22;2607;50.934;6.934;2023-02-08T04:24:07;1.00;99.30
5176;DHT22;2607;50.934;6.934;2023-02-08T04:26:33;1.00;99.30
5176;DHT22;2607;50.934;6.934;2023-02-08T04:28:59;1.00;99.30
5176;DHT22;2607;50.934;6.934;2023-02-08T04:31:25;0.90;99.40
5176;DHT22;2607;50.934;6.934;2023-02-08T04:33:50;0.90;99.40
5176;DHT22;2607;50.934;6.934;2023-02-08T04:36:16;0.90;99.80
5176;DHT22;2607;50.934;6.934;2023-02-08T04:38:42;0.90;99.60
5176;DHT22;2607;50.934;6.934;2023-02-08T04:41:07;0.90;99.80
5176;DHT22;2607;50.934;6.934;2023-02-08T04:43:33;0.90;99.80
5176;DHT22;2607;50.934;6.934;2023-02-08T04:45:58;0.90;99.80
5176;DHT22;2607;50.934;6.934;2023-02-08T04:48:24;0.90;99.80
5176;DHT22;2607;50.934;6.934;2023-02-08T04:50:49;0.90;99.80
5176;DHT22;2607;50.934;6.934;2023-02-08T04:53:15;0.90;99.80
5176;DHT22;2607;50.934;6.934;2023-02-08T04:55:40;0.90;99.80
5176;DHT22;2607;50.934;6.934;2023-02-08T04:58:06;0.90;99.70
5176;DHT22;2607;50.934;6.934;2023-02-08T05:00:31;0.90;99.70
5176;DHT22;2607;50.934;6.934;2023-02-08T05:02:58;0.90;99.60
5176;DHT22;2607;50.934;6.934;2023-02-08T05:05:24;0.90;99.50
5176;DHT22;2607;50.934;6.934;2023-02-08T05:07:50;0.90;99.50
5176;DHT22;2607;50.934;6.934;2023-02-08T05:10:16;0.90;99.50
5176;DHT22;2607;50.934;6.934;2023-02-08T05:12:42;0.90;99.50
5176;DHT22;2607;50.934;6.934;2023-02-08T05:15:08;1.00;99.50
5176;DHT22;2607;50.934;6.934;2023-02-08T05:17:34;1.00;99.50
5176;DHT22;2607;50.934;6.934;2023-02-08T05:19:59;1.00;99.50
5176;DHT22;2607;50.934;6.934;2023-02-08T05:22:25;1.00;99.70
5176;DHT22;2607;50.934;6.934;2023-02-08T05:24:50;0.90;99.70
5176;DHT22;2607;50.934;6.934;2023-02-08T05:27:16;0.90;99.70
5176;DHT22;2607;50.934;6.934;2023-02-08T05:29:42;0.90;99.70
5176;DHT22;2607;50.934;6.934;2023-02-08T05:32:07;0.90;99.90
5176;DHT22;2607;50.934;6.934;2023-02-08T05:34:33;0.90;99.90
5176;DHT22;2607;50.934;6.934;2023-02-08T05:36:58;0.90;99.90
5176;DHT22;2607;50.934;6.934;2023-02-08T05:39:24;0.90;99.90
5176;DHT22;2607;50.934;6.934;2023-02-08T05:41:49;0.90;99.90
5176;DHT22;2607;50.934;6.934;2023-02-08T05:44:15;0.90;99.90
5176;DHT22;2607;50.934;6.934;2023-02-08T05:46:40;0.90;99.90
5176;DHT22;2607;50.934;6.934;2023-02-08T05:49:06;0.90;99.90
5176;DHT22;2607;50.934;6.934;2023-02-08T05:51:32;0.90;99.90
5176;DHT22;2607;50.934;6.934;2023-02-08T05:53:58;0.80;99.90
5176;DHT22;2607;50.934;6.934;2023-02-08T05:56:23;0.80;99.90
5176;DHT22;2607;50.934;6.934;2023-02-08T05:58:49;0.80;99.90
5176;DHT22;2607;50.934;6.934;2023-02-08T06:01:14;0.80;99.90
5176;DHT22;2607;50.934;6.934;2023-02-08T06:03:40;0.80;99.90
5176;DHT22;2607;50.934;6.934;2023-02-08T06:06:06;0.80;99.90
5176;DHT22;2607;50.934;6.934;2023-02-08T06:08:32;0.80;99.90
5176;DHT22;2607;50.934;6.934;2023-02-08T06:10:58;0.80;99.90
5176;DHT22;2607;50.934;6.934;2023-02-08T06:13:23;0.80;99.90
5176;DHT22;2607;50.934;6.934;2023-02-08T06:15:49;0.80;99.90
5176;DHT22;2607;50.934;6.934;2023-02-08T06:18:14;0.80;99.90
5176;DHT22;2607;50.934;6.934;2023-02-08T06:20:40;0.80;99.90
5176;DHT22;2607;50.934;6.934;2023-02-08T06:23:05;0.80;99.90
5176;DHT22;2607;50.934;6.934;2023-02-08T06:25:31;0.80;99.90
5176;DHT22;2607;50.934;6.934;2023-02-08T06:27:57;0.80;99.90
5176;DHT22;2607;50.934;6.934;2023-02-08T06:30:22;0.80;99.90
5176;DHT22;2607;50.934;6.934;2023-02-08T06:32:48;0.80;99.70
5176;DHT22;2607;50.934;6.934;2023-02-08T06:35:14;0.80;99.60
5176;DHT22;2607;50.934;6.934;2023-02-08T06:37:39;0.80;99.50
5176;DHT22;2607;50.934;6.934;2023-02-08T06:40:05;0.80;99.50
5176;DHT22;2607;50.934;6.934;2023-02-08T06:42:31;0.80;99.50
5176;DHT22;2607;50.934;6.934;2023-02-08T06:44:56;0.80;99.40
5176;DHT22;2607;50.934;6.934;2023-02-08T06:47:24;0.80;99.40
5176;DHT22;2607;50.934;6.934;2023-02-08T06:49:50;0.80;99.30
5176;DHT22;2607;50.934;6.934;2023-02-08T06:52:15;0.80;99.40
5176;DHT22;2607;50.934;6.934;2023-02-08T06:54:41;0.80;99.40
5176;DHT22;2607;50.934;6.934;2023-02-08T06:57:07;0.80;99.40
5176;DHT22;2607;50.934;6.934;2023-02-08T06:59:33;0.80;99.40
5176;DHT22;2607;50.934;6.934;2023-02-08T07:01:58;0.80;99.20
5176;DHT22;2607;50.934;6.934;2023-02-08T07:04:24;0.80;99.00
5176;DHT22;2607;50.934;6.934;2023-02-08T07:06:50;0.80;98.90
5176;DHT22;2607;50.934;6.934;2023-02-08T07:09:22;0.80;98.80
5176;DHT22;2607;50.934;6.934;2023-02-08T07:11:48;0.80;98.70
5176;DHT22;2607;50.934;6.934;2023-02-08T07:14:14;0.80;98.50
5176;DHT22;2607;50.934;6.934;2023-02-08T07:16:40;0.80;98.50
5176;DHT22;2607;50.934;6.934;2023-02-08T07:19:05;0.90;98.40
5176;DHT22;2607;50.934;6.934;2023-02-08T07:21:31;0.90;98.20
5176;DHT22;2607;50.934;6.934;2023-02-08T07:23:56;0.90;98.00
5176;DHT22;2607;50.934;6.934;2023-02-08T07:26:22;0.90;97.70
5176;DHT22;2607;50.934;6.934;2023-02-08T07:28:47;0.80;97.60
5176;DHT22;2607;50.934;6.934;2023-02-08T07:31:15;0.80;97.60
5176;DHT22;2607;50.934;6.934;2023-02-08T07:33:41;0.80;97.70
5176;DHT22;2607;50.934;6.934;2023-02-08T07:36:08;0.80;97.80
5176;DHT22;2607;50.934;6.934;2023-02-08T07:38:35;0.80;97.90
5176;DHT22;2607;50.934;6.934;2023-02-08T07:41:02;0.80;98.00
5176;DHT22;2607;50.934;6.934;2023-02-08T07:43:28;0.80;98.00
5176;DHT22;2607;50.934;6.934;2023-02-08T07:45:54;0.80;98.00
5176;DHT22;2607;50.934;6.934;2023-02-08T07:48:20;0.80;98.00
5176;DHT22;2607;50.934;6.934;2023-02-08T07:50:45;0.70;98.00
5176;DHT22;2607;50.934;6.934;2023-02-08T07:53:11;0.70;98.00
5176;DHT22;2607;50.934;6.934;2023-02-08T07:55:36;0.80;97.90
5176;DHT22;2607;50.934;6.934;2023-02-08T07:58:02;0.80;97.90
5176;DHT22;2607;50.934;6.934;2023-02-08T08:00:27;0.80;98.00
5176;DHT22;2607;50.934;6.934;2023-02-08T08:02:53;0.80;97.90
5176;DHT22;2607;50.934;6.934;2023-02-08T08:05:18;0.70;97.90
5176;DHT22;2607;50.934;6.934;2023-02-08T08:07:45;0.80;98.10
5176;DHT22;2607;50.934;6.934;2023-02-08T08:10:10;0.80;98.20
5176;DHT22;2607;50.934;6.934;2023-02-08T08:12:36;0.80;98.10
5176;DHT22;2607;50.934;6.934;2023-02-08T08:15:01;0.80;98.00
5176;DHT22;2607;50.934;6.934;2023-02-08T08:17:27;0.90;97.80
5176;DHT22;2607;50.934;6.934;2023-02-08T08:19:52;0.90;97.80
5176;DHT22;2607;50.934;6.934;2023-02-08T08:22:18;0.90;97.70
5176;DHT22;2607;50.934;6.934;2023-02-08T08:24:43;1.00;97.70
5176;DHT22;2607;50.934;6.934;2023-02-08T08:27:09;1.00;97.60
5176;DHT22;2607;50.934;6.934;2023-02-08T08:29:36;1.10;97.50
5176;DHT22;2607;50.934;6.934;2023-02-08T08:32:02;1.10;97.30
5176;DHT22;2607;50.934;6.934;2023-02-08T08:34:29;1.10;97.00
5176;DHT22;2607;50.934;6.934;2023-02-08T08:36:55;1.20;96.80
5176;DHT22;2607;50.934;6.934;2023-02-08T08:39:21;1.20;96.50
5176;DHT22;2607;50.934;6.934;2023-02-08T08:41:47;1.30;96.20
5176;DHT22;2607;50.934;6.934;2023-02-08T08:44:13;1.30;96.00
5176;DHT22;2607;50.934;6.934;2023-02-08T08:46:38;1.40;95.50
5176;DHT22;2607;50.934;6.934;2023-02-08T08:49:04;1.40;95.30
5176;DHT22;2607;50.934;6.934;2023-02-08T08:51:30;1.50;95.20
5176;DHT22;2607;50.934;6.934;2023-02-08T08:54:00;1.50;95.00
5176;DHT22;2607;50.934;6.934;2023-02-08T08:56:25;1.50;94.90
5176;DHT22;2607;50.934;6.934;2023-02-08T08:58:51;1.60;94.60
5176;DHT22;2607;50.934;6.934;2023-02-08T09:01:16;1.60;94.40
5176;DHT22;2607;50.934;6.934;2023-02-08T09:03:42;1.60;94.20
5176;DHT22;2607;50.934;6.934;2023-02-08T09:06:08;1.70;94.00
5176;DHT22;2607;50.934;6.934;2023-02-08T09:08:33;1.70;94.10
5176;DHT22;2607;50.934;6.934;2023-02-08T09:11:11;1.70;94.10
5176;DHT22;2607;50.934;6.934;2023-02-08T09:13:37;1.80;94.10
5176;DHT22;2607;50.934;6.934;2023-02-08T09:16:05;1.80;94.10
5176;DHT22;2607;50.934;6.934;2023-02-08T09:18:31;1.90;94.10
5176;DHT22;2607;50.934;6.934;2023-02-08T09:20:56;1.90;93.90
5176;DHT22;2607;50.934;6.934;2023-02-08T09:23:22;2.00;93.80
5176;DHT22;2607;50.934;6.934;2023-02-08T09:25:47;2.00;93.50
5176;DHT22;2607;50.934;6.934;2023-02-08T09:28:13;2.00;93.40
5176;DHT22;2607;50.934;6.934;2023-02-08T09:30:38;2.10;93.30
5176;DHT22;2607;50.934;6.934;2023-02-08T09:33:04;2.10;93.10
5176;DHT22;2607;50.934;6.934;2023-02-08T09:35:29;2.10;92.70
5176;DHT22;2607;50.934;6.934;2023-02-08T09:37:56;2.10;92.50
5176;DHT22;2607;50.934;6.934;2023-02-08T09:40:27;2.20;92.10
5176;DHT22;2607;50.934;6.934;2023-02-08T09:43:07;2.20;92.00
5176;DHT22;2607;50.934;6.934;2023-02-08T09:45:45;2.20;91.90
5176;DHT22;2607;50.934;6.934;2023-02-08T09:48:20;2.20;92.00
5176;DHT22;2607;50.934;6.934;2023-02-08T09:51:10;2.30;92.00
5176;DHT22;2607;50.934;6.934;2023-02-08T09:53:41;2.40;91.70
5176;DHT22;2607;50.934;6.934;2023-02-08T09:56:18;2.40;91.50
5176;DHT22;2607;50.934;6.934;2023-02-08T09:58:47;2.40;91.40
5176;DHT22;2607;50.934;6.934;2023-02-08T10:01:20;2.50;91.20
5176;DHT22;2607;50.934;6.934;2023-02-08T10:03:46;2.50;90.80
5176;DHT22;2607;50.934;6.934;2023-02-08T10:06:17;2.60;90.70
5176;DHT22;2607;50.934;6.934;2023-02-08T10:08:44;2.60;90.60
5176;DHT22;2607;50.934;6.934;2023-02-08T10:28:00;3.00;88.80
5176;DHT22;2607;50.934;6.934;2023-02-08T10:33:00;3.20;88.00
5176;DHT22;2607;50.934;6.934;2023-02-08T10:35:36;3.20;87.50
5176;DHT22;2607;50.934;6.934;2023-02-08T10:40:44;3.30;87.00
5176;DHT22;2607;50.934;6.934;2023-02-08T10:43:42;3.40;86.80
5176;DHT22;2607;50.934;6.934;2023-02-08T10:46:38;3.50;86.80
5176;DHT22;2607;50.934;6.934;2023-02-08T10:49:11;3.60;86.50
5176;DHT22;2607;50.934;6.934;2023-02-08T10:51:39;3.60;86.30
5176;DHT22;2607;50.934;6.934;2023-02-08T10:54:05;3.70;86.00
5176;DHT22;2607;50.934;6.934;2023-02-08T10:56:42;3.80;85.60
5176;DHT22;2607;50.934;6.934;2023-02-08T11:02:22;3.90;84.20
5176;DHT22;2607;50.934;6.934;2023-02-08T11:07:23;4.00;83.20
5176;DHT22;2607;50.934;6.934;2023-02-08T11:09:48;4.10;82.10
5176;DHT22;2607;50.934;6.934;2023-02-08T11:12:19;4.20;81.60
5176;DHT22;2607;50.934;6.934;2023-02-08T11:14:50;4.20;80.80
5176;DHT22;2607;50.934;6.934;2023-02-08T11:17:27;4.30;79.70
5176;DHT22;2607;50.934;6.934;2023-02-08T11:19:54;4.40;78.50
5176;DHT22;2607;50.934;6.934;2023-02-08T11:22:22;4.40;77.90
5176;DHT22;2607;50.934;6.934;2023-02-08T11:25:03;4.50;77.30
5176;DHT22;2607;50.934;6.934;2023-02-08T11:27:37;4.50;76.80
5176;DHT22;2607;50.934;6.934;2023-02-08T11:32:42;4.60;77.10
5176;DHT22;2607;50.934;6.934;2023-02-08T11:37:54;4.80;76.30
5176;DHT22;2607;50.934;6.934;2023-02-08T11:40:43;4.80;75.80
5176;DHT22;2607;50.934;6.934;2023-02-08T11:43:21;4.90;75.10
5176;DHT22;2607;50.934;6.934;2023-02-08T11:45:47;5.00;74.80
5176;DHT22;2607;50.934;6.934;2023-02-08T11:48:25;5.00;74.60
5176;DHT22;2607;50.934;6.934;2023-02-08T11:50:59;5.00;73.80
5176;DHT22;2607;50.934;6.934;2023-02-08T11:53:40;5.10;73.00
5176;DHT22;2607;50.934;6.934;2023-02-08T11:56:21;5.20;71.50
5176;DHT22;2607;50.934;6.934;2023-02-08T11:59:04;5.20;71.50
5176;DHT22;2607;50.934;6.934;2023-02-08T12:01:34;5.20;71.10
5176;DHT22;2607;50.934;6.934;2023-02-08T12:04:02;5.30;70.60
5176;DHT22;2607;50.934;6.934;2023-02-08T12:15:39;5.40;69.50
5176;DHT22;2607;50.934;6.934;2023-02-08T12:18:11;5.40;68.50
5176;DHT22;2607;50.934;6.934;2023-02-08T12:20:44;5.50;67.00
5176;DHT22;2607;50.934;6.934;2023-02-08T12:28:55;5.50;66.70
5176;DHT22;2607;50.934;6.934;2023-02-08T12:45:58;5.70;64.50
5176;DHT22;2607;50.934;6.934;2023-02-08T12:48:46;5.70;63.40
5176;DHT22;2607;50.934;6.934;2023-02-08T12:51:25;5.70;63.50
5176;DHT22;2607;50.934;6.934;2023-02-08T12:54:09;5.70;61.90
5176;DHT22;2607;50.934;6.934;2023-02-08T12:56:40;5.70;61.10
5176;DHT22;2607;50.934;6.934;2023-02-08T12:59:18;5.70;59.80
5176;DHT22;2607;50.934;6.934;2023-02-08T13:01:47;5.70;59.50
5176;DHT22;2607;50.934;6.934;2023-02-08T13:04:22;5.70;59.70
5176;DHT22;2607;50.934;6.934;2023-02-08T13:06:57;5.80;59.90
5176;DHT22;2607;50.934;6.934;2023-02-08T13:12:18;5.80;59.70
5176;DHT22;2607;50.934;6.934;2023-02-08T13:15:00;5.80;60.00
5176;DHT22;2607;50.934;6.934;2023-02-08T13:17:37;5.80;60.60
5176;DHT22;2607;50.934;6.934;2023-02-08T13:22:47;5.80;61.40
5176;DHT22;2607;50.934;6.934;2023-02-08T13:25:22;5.80;60.80
5176;DHT22;2607;50.934;6.934;2023-02-08T13:27:50;5.90;61.00
5176;DHT22;2607;50.934;6.934;2023-02-08T13:30:19;5.90;61.20
5176;DHT22;2607;50.934;6.934;2023-02-08T13:32:47;5.90;61.40
5176;DHT22;2607;50.934;6.934;2023-02-08T13:35:25;5.90;61.00
5176;DHT22;2607;50.934;6.934;2023-02-08T13:40:28;5.90;61.30
5176;DHT22;2607;50.934;6.934;2023-02-08T13:43:02;5.90;61.50
5176;DHT22;2607;50.934;6.934;2023-02-08T13:45:35;5.90;61.10
5176;DHT22;2607;50.934;6.934;2023-02-08T13:48:13;5.90;60.60
5176;DHT22;2607;50.934;6.934;2023-02-08T13:50:45;5.90;60.30
5176;DHT22;2607;50.934;6.934;2023-02-08T13:53:11;5.90;60.30
5176;DHT22;2607;50.934;6.934;2023-02-08T13:55:50;6.00;60.30
5176;DHT22;2607;50.934;6.934;2023-02-08T14:01:27;6.00;60.70
5176;DHT22;2607;50.934;6.934;2023-02-08T14:06:56;6.00;59.40
5176;DHT22;2607;50.934;6.934;2023-02-08T14:12:00;6.00;59.60
5176;DHT22;2607;50.934;6.934;2023-02-08T14:14:36;6.00;59.70
5176;DHT22;2607;50.934;6.934;2023-02-08T14:17:16;6.00;59.90
5176;DHT22;2607;50.934;6.934;2023-02-08T14:19:43;6.00;59.90
5176;DHT22;2607;50.934;6.934;2023-02-08T14:24:42;6.00;60.20
5176;DHT22;2607;50.934;6.934;2023-02-08T14:30:01;6.00;60.40
5176;DHT22;2607;50.934;6.934;2023-02-08T14:32:29;6.00;60.60
5176;DHT22;2607;50.934;6.934;2023-02-08T14:35:04;6.10;60.80
5176;DHT22;2607;50.934;6.934;2023-02-08T14:37:33;6.10;60.90
5176;DHT22;2607;50.934;6.934;2023-02-08T14:47:59;6.10;59.90
5176;DHT22;2607;50.934;6.934;2023-02-08T14:50:29;6.10;59.40
5176;DHT22;2607;50.934;6.934;2023-02-08T14:55:41;6.20;58.40
5176;DHT22;2607;50.934;6.934;2023-02-08T14:58:13;6.20;58.10
5176;DHT22;2607;50.934;6.934;2023-02-08T15:00:40;6.20;58.20
5176;DHT22;2607;50.934;6.934;2023-02-08T15:03:13;6.20;58.40
5176;DHT22;2607;50.934;6.934;2023-02-08T15:06:33;6.20;58.30
5176;DHT22;2607;50.934;6.934;2023-02-08T15:08:28;6.20;58.30
5176;DHT22;2607;50.934;6.934;2023-02-08T15:10:54;6.20;58.50
5176;DHT22;2607;50.934;6.934;2023-02-08T15:13:22;6.20;57.60
5176;DHT22;2607;50.934;6.934;2023-02-08T15:15:52;6.20;57.50
5176;DHT22;2607;50.934;6.934;2023-02-08T15:18:37;6.30;56.20
5176;DHT22;2607;50.934;6.934;2023-02-08T15:21:06;6.30;55.30
5176;DHT22;2607;50.934;6.934;2023-02-08T15:23:32;6.30;55.10
5176;DHT22;2607;50.934;6.934;2023-02-08T15:25:59;6.30;55.00
5176;DHT22;2607;50.934;6.934;2023-02-08T15:28:27;6.20;55.10
5176;DHT22;2607;50.934;6.934;2023-02-08T15:31:07;6.20;55.30
5176;DHT22;2607;50.934;6.934;2023-02-08T15:33:37;6.20;55.50
5176;DHT22;2607;50.934;6.934;2023-02-08T15:36:32;6.20;55.70
5176;DHT22;2607;50.934;6.934;2023-02-08T15:39:01;6.20;55.90
5176;DHT22;2607;50.934;6.934;2023-02-08T15:41:30;6.10;55.80
5176;DHT22;2607;50.934;6.934;2023-02-08T15:44:16;6.10;55.70
5176;DHT22;2607;50.934;6.934;2023-02-08T15:46:42;6.10;55.80
5176;DHT22;2607;50.934;6.934;2023-02-08T15:49:14;6.10;55.80
5176;DHT22;2607;50.934;6.934;2023-02-08T15:51:42;6.00;55.90
5176;DHT22;2607;50.934;6.934;2023-02-08T15:54:15;6.10;56.00
5176;DHT22;2607;50.934;6.934;2023-02-08T15:56:47;6.00;56.20
5176;DHT22;2607;50.934;6.934;2023-02-08T15:59:20;6.00;56.20
5176;DHT22;2607;50.934;6.934;2023-02-08T16:01:47;6.00;56.10
5176;DHT22;2607;50.934;6.934;2023-02-08T16:04:13;6.00;55.90
5176;DHT22;2607;50.934;6.934;2023-02-08T16:06:45;6.00;55.90
5176;DHT22;2607;50.934;6.934;2023-02-08T16:09:21;6.00;56.00
5176;DHT22;2607;50.934;6.934;2023-02-08T16:11:49;5.90;56.00
5176;DHT22;2607;50.934;6.934;2023-02-08T16:14:18;5.90;56.10
5176;DHT22;2607;50.934;6.934;2023-02-08T16:16:47;5.90;56.20
5176;DHT22;2607;50.934;6.934;2023-02-08T16:21:54;5.90;56.50
5176;DHT22;2607;50.934;6.934;2023-02-08T16:24:25;5.80;56.40
5176;DHT22;2607;50.934;6.934;2023-02-08T16:27:00;5.80;56.10
5176;DHT22;2607;50.934;6.934;2023-02-08T16:32:07;5.80;56.50
5176;DHT22;2607;50.934;6.934;2023-02-08T16:34:34;5.70;56.70
5176;DHT22;2607;50.934;6.934;2023-02-08T16:37:02;5.70;56.80
5176;DHT22;2607;50.934;6.934;2023-02-08T16:39:58;5.70;56.90
5176;DHT22;2607;50.934;6.934;2023-02-08T16:42:28;5.70;57.10
5176;DHT22;2607;50.934;6.934;2023-02-08T16:47:45;5.60;57.70
5176;DHT22;2607;50.934;6.934;2023-02-08T16:50:15;5.60;58.10
5176;DHT22;2607;50.934;6.934;2023-02-08T16:52:41;5.50;58.30
5176;DHT22;2607;50.934;6.934;2023-02-08T16:55:14;5.50;58.70
5176;DHT22;2607;50.934;6.934;2023-02-08T16:57:47;5.50;58.80
5176;DHT22;2607;50.934;6.934;2023-02-08T17:00:16;5.50;59.20
5176;DHT22;2607;50.934;6.934;2023-02-08T17:02:42;5.50;59.60
5176;DHT22;2607;50.934;6.934;2023-02-08T17:05:08;5.50;59.70
5176;DHT22;2607;50.934;6.934;2023-02-08T17:07:33;5.40;59.90
5176;DHT22;2607;50.934;6.934;2023-02-08T17:10:01;5.40;60.10
5176;DHT22;2607;50.934;6.934;2023-02-08T17:12:26;5.40;60.50
5176;DHT22;2607;50.934;6.934;2023-02-08T17:14:52;5.40;60.80
5176;DHT22;2607;50.934;6.934;2023-02-08T17:17:17;5.30;61.00
5176;DHT22;2607;50.934;6.934;2023-02-08T17:19:44;5.40;61.60
5176;DHT22;2607;50.934;6.934;2023-02-08T17:22:11;5.30;61.90
5176;DHT22;2607;50.934;6.934;2023-02-08T17:24:37;5.30;62.30
5176;DHT22;2607;50.934;6.934;2023-02-08T17:27:02;5.30;62.70
5176;DHT22;2607;50.934;6.934;2023-02-08T17:29:28;5.30;63.00
5176;DHT22;2607;50.934;6.934;2023-02-08T17:31:54;5.20;63.00
5176;DHT22;2607;50.934;6.934;2023-02-08T17:34:19;5.20;63.20
5176;DHT22;2607;50.934;6.934;2023-02-08T17:36:45;5.20;63.50
5176;DHT22;2607;50.934;6.934;2023-02-08T17:39:10;5.20;63.70
5176;DHT22;2607;50.934;6.934;2023-02-08T17:41:38;5.20;63.90
5176;DHT22;2607;50.934;6.934;2023-02-08T17:44:04;5.20;63.90
5176;DHT22;2607;50.934;6.934;2023-02-08T17:46:30;5.10;63.90
5176;DHT22;2607;50.934;6.934;2023-02-08T17:48:56;5.10;64.20
5176;DHT22;2607;50.934;6.934;2023-02-08T17:51:26;5.10;64.40
5176;DHT22;2607;50.934;6.934;2023-02-08T17:53:51;5.00;64.90
5176;DHT22;2607;50.934;6.934;2023-02-08T17:56:20;5.00;65.00
5176;DHT22;2607;50.934;6.934;2023-02-08T17:58:47;5.00;65.10
5176;DHT22;2607;50.934;6.934;2023-02-08T18:01:15;5.00;65.30
5176;DHT22;2607;50.934;6.934;2023-02-08T18:03:45;5.00;65.50
5176;DHT22;2607;50.934;6.934;2023-02-08T18:06:10;4.90;65.30
5176;DHT22;2607;50.934;6.934;2023-02-08T18:08:36;5.00;65.40
5176;DHT22;2607;50.934;6.934;2023-02-08T18:11:10;4.90;65.50
5176;DHT22;2607;50.934;6.934;2023-02-08T18:13:44;4.90;65.80
5176;DHT22;2607;50.934;6.934;2023-02-08T18:16:17;4.90;65.90
5176;DHT22;2607;50.934;6.934;2023-02-08T18:18:43;4.80;65.90
5176;DHT22;2607;50.934;6.934;2023-02-08T18:21:14;4.80;66.10
5176;DHT22;2607;50.934;6.934;2023-02-08T18:23:41;4.80;66.30
5176;DHT22;2607;50.934;6.934;2023-02-08T18:26:12;4.80;66.40
5176;DHT22;2607;50.934;6.934;2023-02-08T18:28:38;4.80;66.80
5176;DHT22;2607;50.934;6.934;2023-02-08T18:31:09;4.70;67.00
5176;DHT22;2607;50.934;6.934;2023-02-08T18:33:36;4.70;67.10
5176;DHT22;2607;50.934;6.934;2023-02-08T18:36:03;4.70;67.00
5176;DHT22;2607;50.934;6.934;2023-02-08T18:38:31;4.70;67.90
5176;DHT22;2607;50.934;6.934;2023-02-08T18:40:56;4.70;67.50
5176;DHT22;2607;50.934;6.934;2023-02-08T18:43:23;4.70;67.80